sensor_id;sensor_type;location;lat;lon;timestamp;P1;durP1;ratioP1;P2;durP2;ratioP2
61617;SDS011;47518;51.776;9.370;2023-02-15T00:01:46;22.02;;;13.98;;
61617;SDS011;47518;51.776;9.370;2023-02-15T00:04:13;21.40;;;13.88;;
61617;SDS011;47518;51.776;9.370;2023-02-15T00:06:40;21.20;;;13.43;;
61617;SDS011;47518;51.776;9.370;2023-02-15T00:09:06;21.40;;;14.13;;
61617;SDS011;47518;51.776;9.370;2023-02-15T00:11:31;21.50;;;12.95;;
61617;SDS011;47518;51.776;9.370;2023-02-15T00:14:19;21.48;;;13.77;;
61617;SDS011;47518;51.776;9.370;2023-02-15T00:16:46;22.95;;;14.52;;
61617;SDS011;47518;51.776;9.370;2023-02-15T00:19:13;21.70;;;14.23;;
61617;SDS011;47518;51.776;9.370;2023-02-15T00:21:40;21.85;;;13.27;;
61617;SDS011;47518;51.776;9.370;2023-02-15T00:24:07;23.00;;;13.82;;
61617;SDS011;47518;51.776;9.370;2023-02-15T00:26:33;23.63;;;14.55;;
61617;SDS011;47518;51.776;9.370;2023-02-15T00:28:59;22.60;;;14.30;;
61617;SDS011;47518;51.776;9.370;2023-02-15T00:31:25;25.80;;;15.70;;
61617;SDS011;47518;51.776;9.370;2023-02-15T00:33:51;28.88;;;17.45;;
61617;SDS011;47518;51.776;9.370;2023-02-15T00:36:16;28.98;;;16.42;;
61617;SDS011;47518;51.776;9.370;2023-02-15T00:38:42;27.67;;;16.58;;
61617;SDS011;47518;51.776;9.370;2023-02-15T00:41:07;26.25;;;15.32;;
61617;SDS011;47518;51.776;9.370;2023-02-15T00:43:33;28.73;;;16.15;;
61617;SDS011;47518;51.776;9.370;2023-02-15T00:46:00;25.13;;;15.55;;
61617;SDS011;47518;51.776;9.370;2023-02-15T00:48:25;22.60;;;14.25;;
61617;SDS011;47518;51.776;9.370;2023-02-15T00:50:53;27.52;;;15.00;;
61617;SDS011;47518;51.776;9.370;2023-02-15T00:53:20;28.27;;;16.63;;
61617;SDS011;47518;51.776;9.370;2023-02-15T00:55:45;27.42;;;15.73;;
61617;SDS011;47518;51.776;9.370;2023-02-15T00:58:11;26.50;;;15.23;;
61617;SDS011;47518;51.776;9.370;2023-02-15T01:00:37;25.17;;;14.95;;
61617;SDS011;47518;51.776;9.370;2023-02-15T01:03:03;25.63;;;15.10;;
61617;SDS011;47518;51.776;9.370;2023-02-15T01:05:29;26.85;;;14.95;;
61617;SDS011;47518;51.776;9.370;2023-02-15T01:07:55;26.40;;;15.50;;
61617;SDS011;47518;51.776;9.370;2023-02-15T01:10:21;27.10;;;16.17;;
61617;SDS011;47518;51.776;9.370;2023-02-15T01:12:46;26.33;;;14.65;;
61617;SDS011;47518;51.776;9.370;2023-02-15T01:15:12;26.00;;;15.45;;
61617;SDS011;47518;51.776;9.370;2023-02-15T01:17:37;26.08;;;15.38;;
61617;SDS011;47518;51.776;9.370;2023-02-15T01:20:03;26.60;;;15.30;;
61617;SDS011;47518;51.776;9.370;2023-02-15T01:22:28;27.67;;;15.77;;
61617;SDS011;47518;51.776;9.370;2023-02-15T01:24:54;25.77;;;15.63;;
61617;SDS011;47518;51.776;9.370;2023-02-15T01:27:19;25.63;;;15.25;;
61617;SDS011;47518;51.776;9.370;2023-02-15T01:29:44;25.75;;;14.88;;
61617;SDS011;47518;51.776;9.370;2023-02-15T01:32:10;26.25;;;15.57;;
61617;SDS011;47518;51.776;9.370;2023-02-15T01:34:36;24.15;;;14.88;;
61617;SDS011;47518;51.776;9.370;2023-02-15T01:37:01;25.15;;;15.07;;
61617;SDS011;47518;51.776;9.370;2023-02-15T01:39:27;26.00;;;15.07;;
61617;SDS011;47518;51.776;9.370;2023-02-15T01:41:52;23.42;;;14.45;;
61617;SDS011;47518;51.776;9.370;2023-02-15T01:47:23;28.60;;;15.70;;
61617;SDS011;47518;51.776;9.370;2023-02-15T01:50:00;25.08;;;15.45;;
61617;SDS011;47518;51.776;9.370;2023-02-15T01:52:31;24.55;;;14.88;;
61617;SDS011;47518;51.776;9.370;2023-02-15T01:55:00;24.55;;;14.23;;
61617;SDS011;47518;51.776;9.370;2023-02-15T01:57:27;23.35;;;14.70;;
61617;SDS011;47518;51.776;9.370;2023-02-15T01:59:55;26.33;;;15.70;;
61617;SDS011;47518;51.776;9.370;2023-02-15T02:02:27;27.02;;;15.70;;
61617;SDS011;47518;51.776;9.370;2023-02-15T02:04:54;27.98;;;15.70;;
61617;SDS011;47518;51.776;9.370;2023-02-15T02:07:23;27.33;;;15.25;;
61617;SDS011;47518;51.776;9.370;2023-02-15T02:09:52;26.60;;;15.35;;
61617;SDS011;47518;51.776;9.370;2023-02-15T02:12:17;26.88;;;15.13;;
61617;SDS011;47518;51.776;9.370;2023-02-15T02:14:44;24.55;;;14.75;;
61617;SDS011;47518;51.776;9.370;2023-02-15T02:17:22;23.25;;;13.40;;
61617;SDS011;47518;51.776;9.370;2023-02-15T02:20:28;23.52;;;14.48;;
61617;SDS011;47518;51.776;9.370;2023-02-15T02:39:30;25.58;;;15.45;;
61617;SDS011;47518;51.776;9.370;2023-02-15T02:42:07;28.60;;;16.02;;
61617;SDS011;47518;51.776;9.370;2023-02-15T02:44:43;27.02;;;16.00;;
61617;SDS011;47518;51.776;9.370;2023-02-15T02:50:12;25.00;;;15.25;;
61617;SDS011;47518;51.776;9.370;2023-02-15T02:52:44;24.77;;;15.63;;
61617;SDS011;47518;51.776;9.370;2023-02-15T02:55:13;30.08;;;16.52;;
61617;SDS011;47518;51.776;9.370;2023-02-15T02:57:51;27.60;;;15.13;;
61617;SDS011;47518;51.776;9.370;2023-02-15T03:00:19;25.95;;;15.15;;
61617;SDS011;47518;51.776;9.370;2023-02-15T03:02:47;26.80;;;15.00;;
61617;SDS011;47518;51.776;9.370;2023-02-15T03:05:18;26.15;;;15.52;;
61617;SDS011;47518;51.776;9.370;2023-02-15T03:07:49;25.73;;;15.02;;
61617;SDS011;47518;51.776;9.370;2023-02-15T03:10:18;27.60;;;14.98;;
61617;SDS011;47518;51.776;9.370;2023-02-15T03:12:45;25.83;;;14.60;;
61617;SDS011;47518;51.776;9.370;2023-02-15T03:15:15;28.67;;;14.75;;
61617;SDS011;47518;51.776;9.370;2023-02-15T03:17:45;24.88;;;14.40;;
61617;SDS011;47518;51.776;9.370;2023-02-15T03:20:18;27.58;;;14.45;;
61617;SDS011;47518;51.776;9.370;2023-02-15T03:22:53;29.08;;;15.43;;
61617;SDS011;47518;51.776;9.370;2023-02-15T03:25:22;25.08;;;14.73;;
61617;SDS011;47518;51.776;9.370;2023-02-15T03:27:53;30.00;;;16.42;;
61617;SDS011;47518;51.776;9.370;2023-02-15T03:30:23;28.70;;;15.65;;
61617;SDS011;47518;51.776;9.370;2023-02-15T03:32:51;28.00;;;15.35;;
61617;SDS011;47518;51.776;9.370;2023-02-15T03:35:19;26.02;;;15.07;;
61617;SDS011;47518;51.776;9.370;2023-02-15T03:37:51;24.42;;;14.60;;
61617;SDS011;47518;51.776;9.370;2023-02-15T03:40:30;25.08;;;14.68;;
61617;SDS011;47518;51.776;9.370;2023-02-15T03:43:25;26.15;;;15.18;;
61617;SDS011;47518;51.776;9.370;2023-02-15T03:46:05;26.52;;;15.35;;
61617;SDS011;47518;51.776;9.370;2023-02-15T03:48:37;26.27;;;14.98;;
61617;SDS011;47518;51.776;9.370;2023-02-15T03:51:09;28.23;;;14.85;;
61617;SDS011;47518;51.776;9.370;2023-02-15T03:54:02;28.13;;;15.95;;
61617;SDS011;47518;51.776;9.370;2023-02-15T03:56:34;26.75;;;14.73;;
61617;SDS011;47518;51.776;9.370;2023-02-15T03:59:03;25.70;;;15.30;;
61617;SDS011;47518;51.776;9.370;2023-02-15T04:14:57;27.90;;;15.43;;
61617;SDS011;47518;51.776;9.370;2023-02-15T04:17:42;26.17;;;15.80;;
61617;SDS011;47518;51.776;9.370;2023-02-15T04:20:07;26.17;;;16.13;;
61617;SDS011;47518;51.776;9.370;2023-02-15T04:22:53;28.23;;;15.82;;
61617;SDS011;47518;51.776;9.370;2023-02-15T04:25:38;26.85;;;15.70;;
61617;SDS011;47518;51.776;9.370;2023-02-15T04:28:04;25.67;;;16.20;;
61617;SDS011;47518;51.776;9.370;2023-02-15T04:30:29;26.58;;;15.98;;
61617;SDS011;47518;51.776;9.370;2023-02-15T04:32:54;26.65;;;15.75;;
61617;SDS011;47518;51.776;9.370;2023-02-15T04:35:21;27.80;;;16.08;;
61617;SDS011;47518;51.776;9.370;2023-02-15T04:37:47;24.98;;;14.77;;
61617;SDS011;47518;51.776;9.370;2023-02-15T04:40:13;25.77;;;14.75;;
61617;SDS011;47518;51.776;9.370;2023-02-15T04:42:39;28.30;;;15.43;;
61617;SDS011;47518;51.776;9.370;2023-02-15T04:45:04;25.13;;;14.90;;
61617;SDS011;47518;51.776;9.370;2023-02-15T04:47:30;27.15;;;15.27;;
61617;SDS011;47518;51.776;9.370;2023-02-15T04:49:55;28.73;;;14.63;;
61617;SDS011;47518;51.776;9.370;2023-02-15T04:52:21;24.42;;;14.60;;
61617;SDS011;47518;51.776;9.370;2023-02-15T04:54:46;25.63;;;14.25;;
61617;SDS011;47518;51.776;9.370;2023-02-15T04:57:12;24.55;;;14.30;;
61617;SDS011;47518;51.776;9.370;2023-02-15T04:59:37;26.98;;;14.35;;
61617;SDS011;47518;51.776;9.370;2023-02-15T05:02:03;25.10;;;14.98;;
61617;SDS011;47518;51.776;9.370;2023-02-15T05:04:28;23.48;;;14.35;;
61617;SDS011;47518;51.776;9.370;2023-02-15T05:06:54;25.77;;;14.55;;
61617;SDS011;47518;51.776;9.370;2023-02-15T05:09:19;24.33;;;14.57;;
61617;SDS011;47518;51.776;9.370;2023-02-15T05:11:44;24.70;;;14.13;;
61617;SDS011;47518;51.776;9.370;2023-02-15T05:14:10;24.75;;;14.73;;
61617;SDS011;47518;51.776;9.370;2023-02-15T05:16:35;23.65;;;13.88;;
61617;SDS011;47518;51.776;9.370;2023-02-15T05:19:00;24.02;;;13.93;;
61617;SDS011;47518;51.776;9.370;2023-02-15T05:21:26;22.85;;;14.02;;
61617;SDS011;47518;51.776;9.370;2023-02-15T05:23:51;22.15;;;13.65;;
61617;SDS011;47518;51.776;9.370;2023-02-15T05:26:18;24.73;;;13.77;;
61617;SDS011;47518;51.776;9.370;2023-02-15T05:29:05;22.38;;;14.25;;
61617;SDS011;47518;51.776;9.370;2023-02-15T05:31:31;21.42;;;13.02;;
61617;SDS011;47518;51.776;9.370;2023-02-15T05:33:57;25.65;;;14.40;;
61617;SDS011;47518;51.776;9.370;2023-02-15T05:36:22;22.75;;;13.63;;
61617;SDS011;47518;51.776;9.370;2023-02-15T05:38:48;23.13;;;13.45;;
61617;SDS011;47518;51.776;9.370;2023-02-15T05:41:13;24.80;;;13.63;;
61617;SDS011;47518;51.776;9.370;2023-02-15T05:43:38;21.55;;;12.90;;
61617;SDS011;47518;51.776;9.370;2023-02-15T05:46:04;22.83;;;13.68;;
61617;SDS011;47518;51.776;9.370;2023-02-15T05:48:30;24.77;;;14.07;;
61617;SDS011;47518;51.776;9.370;2023-02-15T05:51:04;22.08;;;12.88;;
61617;SDS011;47518;51.776;9.370;2023-02-15T05:53:34;24.17;;;13.73;;
61617;SDS011;47518;51.776;9.370;2023-02-15T05:56:01;22.88;;;13.38;;
61617;SDS011;47518;51.776;9.370;2023-02-15T05:58:28;23.60;;;13.55;;
61617;SDS011;47518;51.776;9.370;2023-02-15T06:00:55;20.92;;;12.77;;
61617;SDS011;47518;51.776;9.370;2023-02-15T06:03:21;21.50;;;13.13;;
61617;SDS011;47518;51.776;9.370;2023-02-15T06:05:47;23.45;;;13.20;;
61617;SDS011;47518;51.776;9.370;2023-02-15T06:08:12;24.27;;;13.60;;
61617;SDS011;47518;51.776;9.370;2023-02-15T06:25:17;27.35;;;15.30;;
61617;SDS011;47518;51.776;9.370;2023-02-15T06:27:43;25.33;;;14.77;;
61617;SDS011;47518;51.776;9.370;2023-02-15T06:30:09;25.67;;;15.05;;
61617;SDS011;47518;51.776;9.370;2023-02-15T06:32:35;23.90;;;14.02;;
61617;SDS011;47518;51.776;9.370;2023-02-15T06:35:01;22.92;;;13.98;;
61617;SDS011;47518;51.776;9.370;2023-02-15T06:37:27;24.95;;;14.75;;
61617;SDS011;47518;51.776;9.370;2023-02-15T06:39:52;26.50;;;14.40;;
61617;SDS011;47518;51.776;9.370;2023-02-15T06:42:18;24.83;;;14.52;;
61617;SDS011;47518;51.776;9.370;2023-02-15T06:44:43;21.58;;;12.80;;
61617;SDS011;47518;51.776;9.370;2023-02-15T06:47:10;24.67;;;14.57;;
61617;SDS011;47518;51.776;9.370;2023-02-15T06:49:36;23.95;;;14.00;;
61617;SDS011;47518;51.776;9.370;2023-02-15T06:52:01;22.10;;;13.30;;
61617;SDS011;47518;51.776;9.370;2023-02-15T06:54:27;23.08;;;13.68;;
61617;SDS011;47518;51.776;9.370;2023-02-15T06:56:53;20.75;;;13.10;;
61617;SDS011;47518;51.776;9.370;2023-02-15T06:59:18;22.30;;;14.02;;
61617;SDS011;47518;51.776;9.370;2023-02-15T07:01:44;24.02;;;14.18;;
61617;SDS011;47518;51.776;9.370;2023-02-15T07:04:09;21.60;;;13.55;;
61617;SDS011;47518;51.776;9.370;2023-02-15T07:06:38;19.52;;;12.45;;
61617;SDS011;47518;51.776;9.370;2023-02-15T07:09:06;22.48;;;13.40;;
61617;SDS011;47518;51.776;9.370;2023-02-15T07:11:32;19.55;;;12.30;;
61617;SDS011;47518;51.776;9.370;2023-02-15T07:14:17;19.85;;;12.27;;
61617;SDS011;47518;51.776;9.370;2023-02-15T07:16:43;22.00;;;12.95;;
61617;SDS011;47518;51.776;9.370;2023-02-15T07:19:08;21.40;;;12.68;;
61617;SDS011;47518;51.776;9.370;2023-02-15T07:21:34;19.02;;;12.32;;
61617;SDS011;47518;51.776;9.370;2023-02-15T07:24:00;22.02;;;12.77;;
61617;SDS011;47518;51.776;9.370;2023-02-15T07:26:25;19.58;;;12.95;;
61617;SDS011;47518;51.776;9.370;2023-02-15T07:28:50;22.45;;;12.90;;
61617;SDS011;47518;51.776;9.370;2023-02-15T07:31:16;20.55;;;12.82;;
61617;SDS011;47518;51.776;9.370;2023-02-15T07:33:42;21.35;;;12.95;;
61617;SDS011;47518;51.776;9.370;2023-02-15T07:36:07;21.70;;;13.18;;
61617;SDS011;47518;51.776;9.370;2023-02-15T07:38:36;20.85;;;12.55;;
61617;SDS011;47518;51.776;9.370;2023-02-15T07:41:04;20.48;;;12.38;;
61617;SDS011;47518;51.776;9.370;2023-02-15T07:43:33;20.58;;;11.88;;
61617;SDS011;47518;51.776;9.370;2023-02-15T07:46:03;22.42;;;13.52;;
61617;SDS011;47518;51.776;9.370;2023-02-15T07:48:32;20.77;;;12.85;;
61617;SDS011;47518;51.776;9.370;2023-02-15T07:50:58;20.88;;;12.55;;
61617;SDS011;47518;51.776;9.370;2023-02-15T07:53:25;21.27;;;12.77;;
61617;SDS011;47518;51.776;9.370;2023-02-15T07:55:50;21.70;;;12.57;;
61617;SDS011;47518;51.776;9.370;2023-02-15T07:58:17;19.90;;;12.40;;
61617;SDS011;47518;51.776;9.370;2023-02-15T08:00:42;21.65;;;12.70;;
61617;SDS011;47518;51.776;9.370;2023-02-15T08:03:23;23.10;;;13.07;;
61617;SDS011;47518;51.776;9.370;2023-02-15T08:05:55;19.95;;;12.48;;
61617;SDS011;47518;51.776;9.370;2023-02-15T08:08:22;25.20;;;12.52;;
61617;SDS011;47518;51.776;9.370;2023-02-15T08:11:03;20.05;;;12.10;;
61617;SDS011;47518;51.776;9.370;2023-02-15T08:24:12;20.17;;;12.15;;
61617;SDS011;47518;51.776;9.370;2023-02-15T08:26:39;19.20;;;11.93;;
61617;SDS011;47518;51.776;9.370;2023-02-15T08:29:05;20.38;;;12.35;;
61617;SDS011;47518;51.776;9.370;2023-02-15T08:31:32;20.15;;;12.20;;
61617;SDS011;47518;51.776;9.370;2023-02-15T08:33:58;21.15;;;12.23;;
61617;SDS011;47518;51.776;9.370;2023-02-15T08:36:24;19.92;;;12.00;;
61617;SDS011;47518;51.776;9.370;2023-02-15T08:38:52;20.98;;;12.70;;
61617;SDS011;47518;51.776;9.370;2023-02-15T08:41:18;18.63;;;11.50;;
61617;SDS011;47518;51.776;9.370;2023-02-15T09:07:02;19.10;;;11.65;;
61617;SDS011;47518;51.776;9.370;2023-02-15T09:09:29;20.77;;;12.10;;
61617;SDS011;47518;51.776;9.370;2023-02-15T09:11:56;20.30;;;12.02;;
61617;SDS011;47518;51.776;9.370;2023-02-15T09:14:21;20.30;;;11.55;;
61617;SDS011;47518;51.776;9.370;2023-02-15T09:16:48;19.30;;;11.88;;
61617;SDS011;47518;51.776;9.370;2023-02-15T09:19:16;19.45;;;11.90;;
61617;SDS011;47518;51.776;9.370;2023-02-15T09:21:43;18.38;;;11.02;;
61617;SDS011;47518;51.776;9.370;2023-02-15T09:24:09;17.73;;;10.60;;
61617;SDS011;47518;51.776;9.370;2023-02-15T09:26:37;20.40;;;11.35;;
61617;SDS011;47518;51.776;9.370;2023-02-15T09:29:05;17.02;;;10.50;;
61617;SDS011;47518;51.776;9.370;2023-02-15T09:31:32;19.83;;;11.23;;
61617;SDS011;47518;51.776;9.370;2023-02-15T09:34:05;18.73;;;10.65;;
61617;SDS011;47518;51.776;9.370;2023-02-15T09:36:31;18.38;;;10.63;;
61617;SDS011;47518;51.776;9.370;2023-02-15T09:39:06;21.23;;;11.40;;
61617;SDS011;47518;51.776;9.370;2023-02-15T09:44:49;18.42;;;10.60;;
61617;SDS011;47518;51.776;9.370;2023-02-15T09:47:49;19.40;;;11.15;;
61617;SDS011;47518;51.776;9.370;2023-02-15T10:06:32;17.45;;;10.90;;
61617;SDS011;47518;51.776;9.370;2023-02-15T10:22:49;17.33;;;10.60;;
61617;SDS011;47518;51.776;9.370;2023-02-15T10:28:19;19.77;;;11.35;;
61617;SDS011;47518;51.776;9.370;2023-02-15T10:30:51;22.30;;;10.98;;
61617;SDS011;47518;51.776;9.370;2023-02-15T10:33:27;17.05;;;10.30;;
61617;SDS011;47518;51.776;9.370;2023-02-15T10:36:06;19.05;;;11.20;;
61617;SDS011;47518;51.776;9.370;2023-02-15T10:38:57;16.92;;;10.20;;
61617;SDS011;47518;51.776;9.370;2023-02-15T10:41:44;18.65;;;11.07;;
61617;SDS011;47518;51.776;9.370;2023-02-15T10:47:34;18.42;;;10.88;;
61617;SDS011;47518;51.776;9.370;2023-02-15T10:53:29;18.55;;;11.07;;
61617;SDS011;47518;51.776;9.370;2023-02-15T10:56:12;19.45;;;10.98;;
61617;SDS011;47518;51.776;9.370;2023-02-15T11:01:57;20.40;;;11.77;;
61617;SDS011;47518;51.776;9.370;2023-02-15T11:04:48;18.33;;;11.90;;
61617;SDS011;47518;51.776;9.370;2023-02-15T11:07:24;19.48;;;11.07;;
61617;SDS011;47518;51.776;9.370;2023-02-15T11:10:05;20.15;;;11.38;;
61617;SDS011;47518;51.776;9.370;2023-02-15T11:15:34;21.27;;;11.95;;
61617;SDS011;47518;51.776;9.370;2023-02-15T11:18:09;19.60;;;11.73;;
61617;SDS011;47518;51.776;9.370;2023-02-15T11:20:44;21.70;;;11.68;;
61617;SDS011;47518;51.776;9.370;2023-02-15T11:23:18;20.42;;;11.15;;
61617;SDS011;47518;51.776;9.370;2023-02-15T11:25:45;19.90;;;11.55;;
61617;SDS011;47518;51.776;9.370;2023-02-15T11:28:21;21.17;;;11.75;;
61617;SDS011;47518;51.776;9.370;2023-02-15T11:30:51;20.05;;;11.95;;
61617;SDS011;47518;51.776;9.370;2023-02-15T11:33:22;21.10;;;11.50;;
61617;SDS011;47518;51.776;9.370;2023-02-15T11:35:53;19.48;;;11.25;;
61617;SDS011;47518;51.776;9.370;2023-02-15T11:38:26;19.02;;;11.00;;
61617;SDS011;47518;51.776;9.370;2023-02-15T11:40:57;21.02;;;11.48;;
61617;SDS011;47518;51.776;9.370;2023-02-15T12:01:45;21.63;;;11.32;;
61617;SDS011;47518;51.776;9.370;2023-02-15T12:07:03;19.95;;;11.65;;
61617;SDS011;47518;51.776;9.370;2023-02-15T12:09:59;21.88;;;12.30;;
61617;SDS011;47518;51.776;9.370;2023-02-15T12:12:39;22.83;;;12.07;;
61617;SDS011;47518;51.776;9.370;2023-02-15T12:15:06;21.77;;;12.25;;
61617;SDS011;47518;51.776;9.370;2023-02-15T12:17:38;20.80;;;11.77;;
61617;SDS011;47518;51.776;9.370;2023-02-15T12:23:01;21.30;;;11.82;;
61617;SDS011;47518;51.776;9.370;2023-02-15T12:25:34;17.52;;;11.23;;
61617;SDS011;47518;51.776;9.370;2023-02-15T12:28:03;20.45;;;12.00;;
61617;SDS011;47518;51.776;9.370;2023-02-15T12:30:42;18.75;;;11.73;;
61617;SDS011;47518;51.776;9.370;2023-02-15T12:33:15;20.75;;;11.65;;
61617;SDS011;47518;51.776;9.370;2023-02-15T12:35:50;19.80;;;11.93;;
61617;SDS011;47518;51.776;9.370;2023-02-15T12:38:25;19.27;;;12.00;;
61617;SDS011;47518;51.776;9.370;2023-02-15T12:40:56;21.05;;;12.38;;
61617;SDS011;47518;51.776;9.370;2023-02-15T12:43:26;17.67;;;11.40;;
61617;SDS011;47518;51.776;9.370;2023-02-15T12:59:27;18.00;;;11.50;;
61617;SDS011;47518;51.776;9.370;2023-02-15T13:01:52;22.45;;;11.77;;
61617;SDS011;47518;51.776;9.370;2023-02-15T13:07:01;19.67;;;12.32;;
61617;SDS011;47518;51.776;9.370;2023-02-15T13:22:38;21.02;;;11.85;;
61617;SDS011;47518;51.776;9.370;2023-02-15T13:25:10;17.40;;;11.75;;
61617;SDS011;47518;51.776;9.370;2023-02-15T13:27:40;18.58;;;11.93;;
61617;SDS011;47518;51.776;9.370;2023-02-15T13:30:13;18.98;;;12.05;;
61617;SDS011;47518;51.776;9.370;2023-02-15T13:43:33;20.52;;;12.10;;
61617;SDS011;47518;51.776;9.370;2023-02-15T13:49:29;20.67;;;13.25;;
61617;SDS011;47518;51.776;9.370;2023-02-15T14:02:59;19.88;;;14.60;;
61617;SDS011;47518;51.776;9.370;2023-02-15T14:08:27;18.95;;;12.48;;
61617;SDS011;47518;51.776;9.370;2023-02-15T14:34:50;19.67;;;11.45;;
61617;SDS011;47518;51.776;9.370;2023-02-15T14:37:24;19.73;;;12.23;;
61617;SDS011;47518;51.776;9.370;2023-02-15T14:40:02;20.88;;;12.57;;
61617;SDS011;47518;51.776;9.370;2023-02-15T14:42:57;20.73;;;12.82;;
61617;SDS011;47518;51.776;9.370;2023-02-15T14:45:30;19.70;;;11.98;;
61617;SDS011;47518;51.776;9.370;2023-02-15T14:48:09;20.80;;;11.95;;
61617;SDS011;47518;51.776;9.370;2023-02-15T14:50:44;20.58;;;12.15;;
61617;SDS011;47518;51.776;9.370;2023-02-15T15:06:33;18.98;;;11.73;;
61617;SDS011;47518;51.776;9.370;2023-02-15T15:09:08;22.90;;;12.15;;
61617;SDS011;47518;51.776;9.370;2023-02-15T15:11:52;20.70;;;12.85;;
61617;SDS011;47518;51.776;9.370;2023-02-15T15:27:43;22.83;;;12.93;;
61617;SDS011;47518;51.776;9.370;2023-02-15T15:43:24;22.10;;;12.68;;
61617;SDS011;47518;51.776;9.370;2023-02-15T16:10:45;23.03;;;13.30;;
61617;SDS011;47518;51.776;9.370;2023-02-15T16:13:11;23.23;;;13.30;;
61617;SDS011;47518;51.776;9.370;2023-02-15T16:15:43;24.48;;;13.07;;
61617;SDS011;47518;51.776;9.370;2023-02-15T16:18:13;24.03;;;13.80;;
61617;SDS011;47518;51.776;9.370;2023-02-15T16:20:42;24.17;;;13.60;;
61617;SDS011;47518;51.776;9.370;2023-02-15T16:23:22;23.98;;;13.88;;
61617;SDS011;47518;51.776;9.370;2023-02-15T16:41:58;24.75;;;14.52;;
61617;SDS011;47518;51.776;9.370;2023-02-15T16:44:27;22.55;;;13.48;;
61617;SDS011;47518;51.776;9.370;2023-02-15T16:46:57;22.30;;;13.40;;
61617;SDS011;47518;51.776;9.370;2023-02-15T16:49:25;22.65;;;13.20;;
61617;SDS011;47518;51.776;9.370;2023-02-15T16:51:54;22.88;;;12.75;;
61617;SDS011;47518;51.776;9.370;2023-02-15T16:54:22;25.02;;;14.35;;
61617;SDS011;47518;51.776;9.370;2023-02-15T16:56:49;24.92;;;13.93;;
61617;SDS011;47518;51.776;9.370;2023-02-15T16:59:26;24.90;;;14.40;;
61617;SDS011;47518;51.776;9.370;2023-02-15T17:02:06;25.30;;;14.50;;
61617;SDS011;47518;51.776;9.370;2023-02-15T17:04:37;26.73;;;14.35;;
61617;SDS011;47518;51.776;9.370;2023-02-15T17:07:06;25.92;;;14.98;;
61617;SDS011;47518;51.776;9.370;2023-02-15T17:09:41;25.40;;;14.27;;
61617;SDS011;47518;51.776;9.370;2023-02-15T17:12:35;23.83;;;14.32;;
61617;SDS011;47518;51.776;9.370;2023-02-15T17:15:36;24.23;;;13.57;;
61617;SDS011;47518;51.776;9.370;2023-02-15T17:18:09;26.88;;;14.88;;
61617;SDS011;47518;51.776;9.370;2023-02-15T17:20:53;25.48;;;14.18;;
61617;SDS011;47518;51.776;9.370;2023-02-15T17:23:22;24.45;;;14.00;;
61617;SDS011;47518;51.776;9.370;2023-02-15T17:25:53;26.88;;;14.90;;
61617;SDS011;47518;51.776;9.370;2023-02-15T17:28:20;26.00;;;14.65;;
61617;SDS011;47518;51.776;9.370;2023-02-15T17:30:49;24.35;;;14.13;;
61617;SDS011;47518;51.776;9.370;2023-02-15T17:33:20;29.88;;;15.60;;
61617;SDS011;47518;51.776;9.370;2023-02-15T17:49:14;29.10;;;16.55;;
61617;SDS011;47518;51.776;9.370;2023-02-15T17:51:49;30.45;;;15.77;;
61617;SDS011;47518;51.776;9.370;2023-02-15T17:54:15;28.75;;;16.52;;
61617;SDS011;47518;51.776;9.370;2023-02-15T17:57:00;27.65;;;15.73;;
61617;SDS011;47518;51.776;9.370;2023-02-15T17:59:30;27.00;;;16.00;;
61617;SDS011;47518;51.776;9.370;2023-02-15T18:01:55;33.30;;;16.08;;
61617;SDS011;47518;51.776;9.370;2023-02-15T18:04:41;27.35;;;15.05;;
61617;SDS011;47518;51.776;9.370;2023-02-15T18:07:26;28.55;;;15.75;;
61617;SDS011;47518;51.776;9.370;2023-02-15T18:10:14;29.25;;;15.32;;
61617;SDS011;47518;51.776;9.370;2023-02-15T18:13:00;29.85;;;16.33;;
61617;SDS011;47518;51.776;9.370;2023-02-15T18:18:41;30.27;;;15.75;;
61617;SDS011;47518;51.776;9.370;2023-02-15T18:21:09;30.77;;;16.33;;
61617;SDS011;47518;51.776;9.370;2023-02-15T18:23:39;31.85;;;16.58;;
61617;SDS011;47518;51.776;9.370;2023-02-15T18:26:06;31.55;;;16.30;;
61617;SDS011;47518;51.776;9.370;2023-02-15T18:28:34;32.95;;;17.23;;
61617;SDS011;47518;51.776;9.370;2023-02-15T18:31:02;30.42;;;16.33;;
61617;SDS011;47518;51.776;9.370;2023-02-15T18:36:18;31.60;;;17.38;;
61617;SDS011;47518;51.776;9.370;2023-02-15T18:41:16;36.53;;;18.05;;
61617;SDS011;47518;51.776;9.370;2023-02-15T18:43:43;32.35;;;17.75;;
61617;SDS011;47518;51.776;9.370;2023-02-15T18:46:08;33.92;;;17.02;;
61617;SDS011;47518;51.776;9.370;2023-02-15T18:48:34;35.03;;;17.27;;
61617;SDS011;47518;51.776;9.370;2023-02-15T18:50:59;34.22;;;16.63;;
61617;SDS011;47518;51.776;9.370;2023-02-15T18:53:24;36.38;;;17.60;;
61617;SDS011;47518;51.776;9.370;2023-02-15T18:55:50;35.10;;;17.70;;
61617;SDS011;47518;51.776;9.370;2023-02-15T18:58:17;29.48;;;15.85;;
61617;SDS011;47518;51.776;9.370;2023-02-15T19:00:44;34.63;;;16.65;;
61617;SDS011;47518;51.776;9.370;2023-02-15T19:03:12;32.95;;;16.90;;
61617;SDS011;47518;51.776;9.370;2023-02-15T19:05:39;33.58;;;17.33;;
61617;SDS011;47518;51.776;9.370;2023-02-15T19:08:12;37.45;;;18.80;;
61617;SDS011;47518;51.776;9.370;2023-02-15T19:10:40;32.67;;;17.25;;
61617;SDS011;47518;51.776;9.370;2023-02-15T19:13:09;33.72;;;16.58;;
61617;SDS011;47518;51.776;9.370;2023-02-15T19:15:36;35.65;;;18.35;;
61617;SDS011;47518;51.776;9.370;2023-02-15T19:18:01;37.50;;;18.52;;
61617;SDS011;47518;51.776;9.370;2023-02-15T19:20:28;37.00;;;17.73;;
61617;SDS011;47518;51.776;9.370;2023-02-15T19:22:56;35.55;;;18.92;;
61617;SDS011;47518;51.776;9.370;2023-02-15T19:25:25;34.47;;;17.67;;
61617;SDS011;47518;51.776;9.370;2023-02-15T19:27:53;36.80;;;19.35;;
61617;SDS011;47518;51.776;9.370;2023-02-15T19:30:20;35.70;;;17.55;;
61617;SDS011;47518;51.776;9.370;2023-02-15T19:32:49;37.10;;;19.15;;
61617;SDS011;47518;51.776;9.370;2023-02-15T19:35:15;39.10;;;18.95;;
61617;SDS011;47518;51.776;9.370;2023-02-15T19:37:44;37.95;;;19.08;;
61617;SDS011;47518;51.776;9.370;2023-02-15T19:40:16;37.63;;;19.00;;
61617;SDS011;47518;51.776;9.370;2023-02-15T19:42:44;40.50;;;19.88;;
61617;SDS011;47518;51.776;9.370;2023-02-15T19:45:13;41.00;;;19.73;;
61617;SDS011;47518;51.776;9.370;2023-02-15T19:47:40;40.83;;;20.07;;
61617;SDS011;47518;51.776;9.370;2023-02-15T19:50:07;37.45;;;18.85;;
61617;SDS011;47518;51.776;9.370;2023-02-15T19:52:37;40.00;;;19.73;;
61617;SDS011;47518;51.776;9.370;2023-02-15T19:55:03;40.45;;;19.70;;
61617;SDS011;47518;51.776;9.370;2023-02-15T19:57:28;43.78;;;20.30;;
61617;SDS011;47518;51.776;9.370;2023-02-15T19:59:55;41.08;;;20.02;;
61617;SDS011;47518;51.776;9.370;2023-02-15T20:02:20;44.08;;;20.77;;
61617;SDS011;47518;51.776;9.370;2023-02-15T20:04:46;40.55;;;20.75;;
61617;SDS011;47518;51.776;9.370;2023-02-15T20:07:17;40.92;;;20.38;;
61617;SDS011;47518;51.776;9.370;2023-02-15T20:09:49;41.90;;;20.63;;
61617;SDS011;47518;51.776;9.370;2023-02-15T20:12:20;43.63;;;21.33;;
61617;SDS011;47518;51.776;9.370;2023-02-15T20:14:48;44.15;;;20.90;;
61617;SDS011;47518;51.776;9.370;2023-02-15T20:17:14;40.53;;;20.35;;
61617;SDS011;47518;51.776;9.370;2023-02-15T20:19:39;37.72;;;19.73;;